Time;durP1;ratioP1;P1;durP2;ratioP2;P2;SDS_P1;SDS_P2;PMS_P1;PMS_P2;Temp;Humidity;BMP_temperature;BMP_pressure;BME280_temperature;BME280_humidity;BME280_pressure;Samples;Min_cycle;Max_cycle;Signal;HPM_P1;HPM_P2
2021/05/25 00:02:24;;;;;;;13.88;6.47;;;;;;;7.93;95.37;100852.99;1713539;80;21113;-72
2021/05/25 00:04:51;;;;;;;17.73;7.83;;;;;;;7.91;95.43;100854.80;1739781;82;21097;-75
2021/05/25 00:07:18;;;;;;;16.90;7.28;;;;;;;7.91;95.49;100853.91;1740068;82;21056;-76
2021/05/25 00:09:46;;;;;;;15.65;8.70;;;;;;;7.93;95.58;100850.82;1740209;82;21533;-75
2021/05/25 00:12:13;;;;;;;16.80;8.20;;;;;;;7.93;95.47;100849.51;1740228;82;21092;-76
2021/05/25 00:14:40;;;;;;;17.10;8.98;;;;;;;7.95;95.66;100851.67;1733884;82;21113;-74
2021/05/25 00:17:08;;;;;;;13.30;7.67;;;;;;;7.97;95.76;100852.52;1767930;79;21092;-90
2021/05/25 00:19:35;;;;;;;19.37;6.25;;;;;;;7.97;95.69;100861.70;1788636;79;21611;-91
2021/05/25 00:22:03;;;;;;;21.93;5.80;;;;;;;7.98;95.70;100858.17;1800822;79;21076;-92
2021/05/25 00:24:30;;;;;;;7.22;4.58;;;;;;;7.99;95.84;100859.92;1769573;81;21007;-91
2021/05/25 00:26:57;;;;;;;7.10;4.92;;;;;;;7.99;95.90;100863.41;1800307;78;21067;-90
2021/05/25 00:29:26;;;;;;;8.38;5.37;;;;;;;8.01;95.95;100867.33;1766708;80;21092;-89
2021/05/25 00:31:53;;;;;;;7.40;4.37;;;;;;;8.01;96.00;100864.70;1745665;79;21089;-74
2021/05/25 00:34:20;;;;;;;9.70;4.80;;;;;;;7.99;95.93;100857.30;1703352;84;21082;-76
2021/05/25 00:36:46;;;;;;;7.22;4.60;;;;;;;7.98;96.03;100855.55;1728726;83;21054;-75
2021/05/25 00:39:14;;;;;;;7.95;4.60;;;;;;;7.98;95.94;100854.23;1737440;82;21042;-75
2021/05/25 00:41:43;;;;;;;9.88;4.70;;;;;;;7.95;95.91;100850.36;1722814;82;21109;-74
2021/05/25 00:44:11;;;;;;;12.85;5.12;;;;;;;7.94;95.93;100848.64;1731860;82;21106;-73
2021/05/25 00:46:38;;;;;;;7.28;5.30;;;;;;;7.92;95.93;100853.03;1738482;79;21628;-82
2021/05/25 00:49:06;;;;;;;9.73;5.67;;;;;;;7.91;95.95;100848.66;1743918;81;21382;-83
2021/05/25 00:51:34;;;;;;;16.90;5.53;;;;;;;7.78;96.05;100838.36;1759905;81;21614;-83
2021/05/25 00:54:01;;;;;;;6.80;4.87;;;;;;;7.92;96.00;100855.66;1754188;81;21125;-83
2021/05/25 00:56:27;;;;;;;9.45;5.40;;;;;;;7.90;95.94;100857.44;1758441;81;21608;-81
2021/05/25 00:58:54;;;;;;;10.78;4.92;;;;;;;7.89;95.90;100858.30;1717878;83;21132;-82
2021/05/25 01:01:22;;;;;;;8.23;4.42;;;;;;;7.85;95.73;100861.88;1710539;80;21764;-73
2021/05/25 01:03:49;;;;;;;13.93;5.03;;;;;;;7.81;95.69;100865.43;1705392;83;21043;-73
2021/05/25 01:06:16;;;;;;;8.78;4.45;;;;;;;7.79;95.67;100864.13;1677112;83;21184;-74
2021/05/25 01:08:43;;;;;;;9.13;4.20;;;;;;;7.74;95.76;100864.64;1708351;83;21113;-74
2021/05/25 01:11:14;;;;;;;12.05;4.28;;;;;;;7.74;95.94;100870.75;1688304;83;21089;-73
2021/05/25 01:13:49;;;;;;;9.78;4.90;;;;;;;7.72;95.89;100876.45;1741007;82;21083;-74
2021/05/25 01:16:16;;;;;;;10.53;4.97;;;;;;;7.70;95.76;100876.05;1696091;82;21278;-75
2021/05/25 01:18:44;;;;;;;10.82;4.62;;;;;;;7.68;95.73;100883.06;1723024;83;21138;-75
2021/05/25 01:21:12;;;;;;;14.07;4.60;;;;;;;7.66;95.77;100884.42;1722843;83;21082;-77
2021/05/25 01:23:39;;;;;;;6.58;4.37;;;;;;;7.65;95.87;100883.98;1723126;83;21467;-77
2021/05/25 01:26:07;;;;;;;14.13;5.15;;;;;;;7.64;95.88;100880.05;1730944;81;21603;-77
2021/05/25 01:28:34;;;;;;;6.97;4.67;;;;;;;7.61;95.88;100883.59;1750988;80;21128;-73
2021/05/25 01:31:03;;;;;;;11.83;4.50;;;;;;;7.57;95.94;100884.54;1769230;77;21096;-74
2021/05/25 01:33:32;;;;;;;14.00;5.12;;;;;;;7.52;95.95;100885.02;1685715;82;21132;-73
2021/05/25 01:35:58;;;;;;;11.00;4.30;;;;;;;7.47;95.94;100889.00;1689752;82;21108;-75
2021/05/25 01:38:26;;;;;;;10.88;4.80;;;;;;;7.43;96.13;100883.81;1684934;82;21607;-75
2021/05/25 01:40:55;;;;;;;12.23;5.53;;;;;;;7.39;96.24;100882.14;1706104;82;21738;-74
2021/05/25 01:43:22;;;;;;;11.48;5.08;;;;;;;7.35;96.39;100879.98;1713333;82;21878;-75
2021/05/25 01:46:11;;;;;;;7.75;4.50;;;;;;;7.31;96.31;100877.83;1699220;82;21108;-76
2021/05/25 01:48:40;;;;;;;10.65;4.65;;;;;;;7.30;96.39;100881.35;1683759;82;21104;-74
2021/05/25 01:51:07;;;;;;;7.90;4.30;;;;;;;7.28;96.55;100878.33;1689947;82;21099;-75
2021/05/25 01:54:49;;;;;;;8.25;4.60;;;;;;;7.34;96.86;100872.58;1806450;79;28445;-75
2021/05/25 01:57:16;;;;;;;8.25;4.75;;;;;;;7.27;96.66;100874.84;1779703;80;21107;-76
2021/05/25 01:59:44;;;;;;;9.90;4.50;;;;;;;7.20;96.53;100873.19;1779665;80;21063;-74
2021/05/25 02:02:12;;;;;;;5.97;4.60;;;;;;;7.20;96.64;100878.42;1723430;78;21562;-77
2021/05/25 02:04:38;;;;;;;12.10;5.15;;;;;;;7.18;96.70;100876.67;1690673;84;21087;-79
2021/05/25 02:07:07;;;;;;;9.18;4.70;;;;;;;7.14;96.80;100870.17;1690339;84;21115;-78
2021/05/25 02:09:37;;;;;;;8.83;4.42;;;;;;;7.14;96.99;100868.86;1690735;84;22307;-78
2021/05/25 02:12:06;;;;;;;8.23;4.80;;;;;;;7.15;97.11;100869.72;1690690;84;22035;-77
2021/05/25 02:14:33;;;;;;;8.30;4.53;;;;;;;7.19;97.20;100866.64;1690422;84;21636;-79
2021/05/25 02:17:00;;;;;;;5.65;3.98;;;;;;;7.20;97.29;100868.36;1695865;81;21028;-77
2021/05/25 02:19:27;;;;;;;7.22;4.40;;;;;;;7.23;97.32;100875.76;1698064;84;21575;-77
2021/05/25 02:21:54;;;;;;;7.70;4.53;;;;;;;7.25;97.36;100871.37;1698119;84;20949;-77
2021/05/25 02:24:21;;;;;;;14.00;4.80;;;;;;;7.28;97.29;100877.87;1707280;83;20998;-76
2021/05/25 02:26:48;;;;;;;12.00;5.20;;;;;;;7.31;97.25;100879.14;1725761;83;20973;-76
2021/05/25 02:29:15;;;;;;;8.40;4.08;;;;;;;7.32;97.33;100870.41;1719989;83;20929;-74
2021/05/25 02:31:43;;;;;;;6.08;4.55;;;;;;;7.35;97.30;100876.91;1731771;79;20975;-76
2021/05/25 02:34:10;;;;;;;15.70;4.28;;;;;;;7.38;97.29;100877.32;1791611;80;20927;-76
2021/05/25 02:36:37;;;;;;;7.25;4.80;;;;;;;7.41;97.47;100879.03;1774886;78;21776;-74
2021/05/25 02:39:05;;;;;;;9.95;4.80;;;;;;;7.47;97.62;100884.20;1774339;80;20952;-75
2021/05/25 02:41:32;;;;;;;8.08;4.20;;;;;;;7.55;97.73;100879.75;1774521;80;20928;-75
2021/05/25 02:43:59;;;;;;;12.05;4.87;;;;;;;7.65;97.77;100885.29;1774457;80;20948;-75
2021/05/25 02:46:26;;;;;;;13.13;4.90;;;;;;;7.74;97.73;100889.55;1771395;78;20960;-75
2021/05/25 02:48:53;;;;;;;10.90;5.42;;;;;;;7.82;97.68;100889.44;1692467;84;21866;-74
2021/05/25 02:51:20;;;;;;;10.20;4.97;;;;;;;7.94;97.83;100890.60;1692231;84;20964;-74
2021/05/25 02:53:48;;;;;;;8.13;4.67;;;;;;;8.05;97.86;100891.32;1692405;84;21125;-74
2021/05/25 02:56:15;;;;;;;10.60;5.17;;;;;;;8.15;97.81;100891.59;1692300;84;21567;-74
2021/05/25 02:58:43;;;;;;;10.70;5.65;;;;;;;8.28;97.80;100890.09;1692415;84;20947;-74
2021/05/25 03:01:24;;;;;;;10.90;5.20;;;;;;;8.40;97.67;100893.44;1706173;83;21078;-75
2021/05/25 03:03:50;;;;;;;10.93;6.00;;;;;;;8.52;97.53;100892.36;1691949;84;20964;-74
2021/05/25 03:06:17;;;;;;;8.85;5.90;;;;;;;8.65;97.42;100889.52;1658158;86;21562;-74
2021/05/25 03:08:47;;;;;;;11.35;5.97;;;;;;;8.78;97.41;100893.68;1649189;87;20949;-74
2021/05/25 03:11:14;;;;;;;10.72;6.47;;;;;;;8.92;97.32;100888.18;1649130;87;21575;-73
2021/05/25 03:13:41;;;;;;;13.60;6.12;;;;;;;9.05;97.18;100891.47;1649123;87;21691;-74
2021/05/25 03:16:09;;;;;;;10.58;6.47;;;;;;;9.21;97.13;100897.70;1649103;87;21001;-78
2021/05/25 03:18:37;;;;;;;8.38;6.62;;;;;;;9.38;97.08;100896.05;1734441;81;20944;-75
2021/05/25 03:21:04;;;;;;;10.60;6.50;;;;;;;9.58;97.03;100897.42;1742091;82;20933;-74
2021/05/25 03:23:31;;;;;;;12.45;6.05;;;;;;;9.75;96.69;100900.55;1731526;82;21484;-76
2021/05/25 03:26:00;;;;;;;13.68;6.65;;;;;;;9.93;96.17;100893.17;1712483;83;21103;-75
2021/05/25 03:28:26;;;;;;;9.73;6.55;;;;;;;10.09;95.84;100890.61;1736332;82;20968;-75
2021/05/25 03:30:54;;;;;;;11.90;5.90;;;;;;;10.28;95.58;100890.65;1725012;83;20887;-75
2021/05/25 03:33:21;;;;;;;10.53;5.20;;;;;;;10.50;95.12;100893.61;1663464;81;20973;-75
2021/05/25 03:35:48;;;;;;;10.82;6.00;;;;;;;10.71;94.30;100894.84;1659834;86;20925;-75
2021/05/25 03:38:15;;;;;;;15.83;8.13;;;;;;;10.92;93.36;100889.92;1696139;84;21051;-77
2021/05/25 03:40:43;;;;;;;13.20;8.30;;;;;;;11.12;92.54;100895.53;1696016;84;20947;-76
2021/05/25 03:43:10;;;;;;;13.90;7.28;;;;;;;11.35;92.14;100899.31;1696004;84;20956;-75
2021/05/25 03:45:38;;;;;;;21.00;7.90;;;;;;;11.66;91.30;100901.06;1696001;84;21577;-77
2021/05/25 03:48:05;;;;;;;13.08;7.50;;;;;;;11.96;90.29;100905.48;1663116;80;20945;-75
2021/05/25 03:50:32;;;;;;;15.40;7.95;;;;;;;12.27;89.11;100905.84;1643772;87;21214;-76
2021/05/25 03:52:59;;;;;;;10.82;7.28;;;;;;;12.59;87.83;100910.55;1666250;86;21604;-80
2021/05/25 04:00:40;;;;;;;20.75;9.95;;;;;;;13.51;83.30;100899.44;1678141;85;20905;-73
2021/05/25 04:03:07;;;;;;;22.75;11.22;;;;;;;13.85;80.97;100896.38;1703624;81;21925;-70
2021/05/25 04:05:34;;;;;;;22.70;12.93;;;;;;;14.23;79.21;100894.47;1713900;83;20933;-69
2021/05/25 04:08:01;;;;;;;23.55;12.90;;;;;;;14.65;76.93;100894.99;1674498;84;21518;-69
2021/05/25 04:10:29;;;;;;;21.25;11.40;;;;;;;15.07;74.44;100891.46;1678504;84;20923;-68
2021/05/25 04:12:58;;;;;;;19.70;10.18;;;;;;;15.46;72.48;100882.19;1692550;84;20935;-69
2021/05/25 04:15:25;;;;;;;18.62;10.25;;;;;;;15.82;70.06;100885.90;1697697;83;21066;-69
2021/05/25 04:17:54;;;;;;;16.10;8.43;;;;;;;16.14;68.29;100882.56;1679572;79;21006;-74
2021/05/25 04:20:23;;;;;;;12.33;7.20;;;;;;;16.41;65.87;100880.84;1663448;84;20991;-73
2021/05/25 04:22:50;;;;;;;14.63;6.80;;;;;;;16.63;64.72;100881.09;1663306;86;21600;-71
2021/05/25 04:25:17;;;;;;;17.73;5.47;;;;;;;16.88;63.31;100874.94;1671744;84;21519;-73
2021/05/25 04:27:45;;;;;;;8.75;5.67;;;;;;;17.09;61.51;100880.09;1687278;84;21100;-72
2021/05/25 04:30:13;;;;;;;15.03;6.12;;;;;;;17.18;60.65;100880.94;1687901;85;20908;-72
2021/05/25 04:32:40;;;;;;;20.25;10.10;;;;;;;17.26;60.71;100880.08;1662871;81;20973;-68
2021/05/25 04:35:08;;;;;;;29.40;16.82;;;;;;;17.45;60.24;100879.09;1635407;87;21612;-70
2021/05/25 04:37:35;;;;;;;34.13;18.92;;;;;;;17.64;59.94;100872.30;1635557;86;20986;-71
2021/05/25 04:40:02;;;;;;;28.73;15.90;;;;;;;17.90;58.73;100873.54;1635577;86;21010;-71
2021/05/25 04:42:29;;;;;;;15.80;8.68;;;;;;;18.13;56.73;100870.47;1635492;87;20978;-70
2021/05/25 04:44:56;;;;;;;13.80;6.85;;;;;;;18.37;54.62;100874.85;1635646;87;21587;-70
2021/05/25 04:47:23;;;;;;;14.47;6.03;;;;;;;18.55;53.53;100867.59;1678660;80;21016;-73
2021/05/25 04:49:50;;;;;;;7.87;3.67;;;;;;;18.74;53.94;100865.17;1706163;82;21667;-72
2021/05/25 04:52:17;;;;;;;6.75;3.87;;;;;;;18.93;50.49;100865.81;1717573;82;21101;-73
2021/05/25 04:54:45;;;;;;;12.03;3.87;;;;;;;19.08;50.34;100865.38;1706620;84;20981;-73
2021/05/25 04:57:12;;;;;;;6.20;3.00;;;;;;;19.23;50.50;100865.78;1722481;82;20976;-81
2021/05/25 04:59:39;;;;;;;10.88;3.47;;;;;;;19.41;48.80;100857.08;1709653;82;21645;-69
2021/05/25 05:02:06;;;;;;;13.65;3.80;;;;;;;19.41;48.16;100856.23;1706631;81;20884;-77
2021/05/25 05:04:33;;;;;;;5.37;3.10;;;;;;;19.48;48.73;100857.07;1703190;84;21076;-74
2021/05/25 05:07:00;;;;;;;9.18;2.92;;;;;;;19.71;49.00;100858.81;1696455;82;21504;-74
2021/05/25 05:09:27;;;;;;;10.65;2.92;;;;;;;19.91;47.41;100851.71;1693248;81;20961;-74
2021/05/25 05:11:54;;;;;;;14.40;2.42;;;;;;;20.03;46.75;100853.21;1737704;81;20982;-77
2021/05/25 05:14:21;;;;;;;11.22;2.20;;;;;;;20.18;45.16;100849.55;1706407;81;20985;-71
2021/05/25 05:17:08;;;;;;;4.72;1.72;;;;;;;20.32;45.09;100849.48;1706172;81;21635;-71
2021/05/25 05:19:35;;;;;;;3.40;1.90;;;;;;;20.53;43.40;100853.02;1749866;81;20948;-72
2021/05/25 05:22:02;;;;;;;3.12;1.60;;;;;;;20.59;42.57;100847.75;1745610;81;20971;-72
2021/05/25 05:24:30;;;;;;;5.30;1.80;;;;;;;20.64;41.64;100854.53;1747847;81;21047;-72
2021/05/25 05:26:57;;;;;;;7.28;2.00;;;;;;;20.63;42.55;100838.56;1753584;81;20888;-72
2021/05/25 05:29:24;;;;;;;4.75;1.77;;;;;;;20.66;43.42;100835.67;1758522;81;21042;-73
2021/05/25 05:31:50;;;;;;;7.42;1.95;;;;;;;20.83;42.57;100839.89;1756303;81;20973;-73
2021/05/25 05:34:19;;;;;;;7.03;1.92;;;;;;;20.98;41.79;100841.98;1756653;79;78517;-85
2021/05/25 05:36:46;;;;;;;8.20;1.60;;;;;;;21.12;40.70;100849.45;1762538;80;21014;-83
2021/05/25 05:39:13;;;;;;;3.80;1.30;;;;;;;21.27;41.36;100841.29;1764411;80;21429;-84
2021/05/25 05:41:40;;;;;;;9.18;1.67;;;;;;;21.42;39.23;100842.92;1756689;81;21151;-86
2021/05/25 05:44:07;;;;;;;10.05;1.30;;;;;;;21.42;39.97;100837.56;1765444;80;20930;-87
2021/05/25 05:46:34;;;;;;;3.00;1.15;;;;;;;21.31;40.33;100842.80;1783198;80;20947;-84
2021/05/25 05:49:01;;;;;;;2.35;1.50;;;;;;;21.39;40.50;100833.71;1665565;79;21020;-72
2021/05/25 05:51:30;;;;;;;2.72;1.25;;;;;;;21.68;39.64;100844.21;1638990;86;21194;-71
2021/05/25 05:54:05;;;;;;;4.90;1.20;;;;;;;21.86;39.33;100846.05;1664205;86;21542;-73
2021/05/25 05:56:32;;;;;;;2.90;1.40;;;;;;;21.96;39.50;100843.90;1690665;84;20994;-73
2021/05/25 05:58:59;;;;;;;4.35;1.22;;;;;;;22.06;38.60;100844.56;1691792;84;21010;-73
2021/05/25 06:01:26;;;;;;;3.05;1.00;;;;;;;22.24;38.08;100848.59;1692234;83;21898;-72
2021/05/25 06:03:53;;;;;;;3.40;1.22;;;;;;;22.51;38.04;100842.98;1736947;80;21049;-87
2021/05/25 06:06:19;;;;;;;4.83;1.57;;;;;;;22.68;35.93;100836.31;1734466;82;21048;-86
2021/05/25 06:08:47;;;;;;;4.53;1.07;;;;;;;22.68;36.30;100832.78;1755757;81;21551;-84
2021/05/25 06:11:14;;;;;;;5.25;1.67;;;;;;;22.70;36.06;100827.66;1756308;81;21077;-85
2021/05/25 06:13:41;;;;;;;4.75;1.35;;;;;;;22.94;36.04;100822.23;1755966;81;21000;-85
2021/05/25 06:16:08;;;;;;;4.95;1.30;;;;;;;23.20;35.83;100825.58;1750145;80;21053;-84
2021/05/25 06:18:35;;;;;;;2.00;1.40;;;;;;;23.32;35.78;100821.06;1716702;80;21057;-73
2021/05/25 06:21:03;;;;;;;4.62;1.20;;;;;;;23.37;35.14;100817.51;1694463;84;21007;-72
2021/05/25 06:23:32;;;;;;;2.35;1.00;;;;;;;23.44;36.62;100817.41;1697858;84;21038;-71
2021/05/25 06:25:59;;;;;;;11.08;1.57;;;;;;;23.44;35.92;100817.88;1697995;84;21107;-73
2021/05/25 06:28:27;;;;;;;4.67;1.80;;;;;;;23.34;36.64;100816.91;1700913;83;21003;-73
2021/05/25 06:30:55;;;;;;;9.70;1.82;;;;;;;23.17;36.27;100808.37;1697577;84;21078;-72
2021/05/25 06:33:22;;;;;;;8.40;1.62;;;;;;;22.98;37.41;100814.77;1685204;78;75192;-86
2021/05/25 06:35:50;;;;;;;3.55;1.67;;;;;;;23.02;37.01;100814.94;1646091;87;21892;-86
2021/05/25 06:38:17;;;;;;;6.95;1.80;;;;;;;22.95;36.75;100804.28;1646109;87;20987;-87
2021/05/25 06:40:45;;;;;;;4.60;1.67;;;;;;;22.98;36.96;100794.62;1646144;86;21571;-86
2021/05/25 06:43:11;;;;;;;2.70;1.27;;;;;;;23.13;36.62;100801.52;1646919;87;21041;-86
2021/05/25 06:45:39;;;;;;;3.55;1.82;;;;;;;23.05;36.73;100799.91;1645962;87;21346;-87
2021/05/25 06:48:06;;;;;;;8.53;2.05;;;;;;;23.23;36.85;100798.45;1672110;81;21021;-72
2021/05/25 06:50:33;;;;;;;6.00;1.77;;;;;;;23.50;36.58;100794.55;1735677;82;21511;-73
2021/05/25 06:53:00;;;;;;;3.30;1.30;;;;;;;23.61;36.09;100791.00;1735961;82;20993;-72
2021/05/25 06:55:27;;;;;;;7.00;1.50;;;;;;;23.69;36.10;100787.67;1735939;82;21062;-72
2021/05/25 06:57:54;;;;;;;3.35;1.30;;;;;;;23.76;35.31;100785.72;1735813;82;21035;-72
2021/05/25 07:00:22;;;;;;;4.65;1.10;;;;;;;23.83;35.28;100776.19;1735961;82;21542;-72
2021/05/25 07:02:50;;;;;;;2.65;1.40;;;;;;;24.15;35.83;100775.81;1724075;81;21254;-88
2021/05/25 07:05:17;;;;;;;5.35;1.70;;;;;;;24.17;35.25;100779.23;1676077;85;21090;-87
2021/05/25 07:07:44;;;;;;;3.92;1.40;;;;;;;24.08;35.11;100779.02;1676548;85;21076;-87
2021/05/25 07:10:11;;;;;;;6.35;1.50;;;;;;;24.25;35.89;100780.81;1677793;85;20928;-82
2021/05/25 07:12:39;;;;;;;3.17;1.17;;;;;;;24.28;34.86;100780.54;1677706;83;21071;-86
2021/05/25 07:15:11;;;;;;;;;;;;;;;24.38;35.43;100781.45;1679834;85;21009;-86
2021/05/25 07:17:45;;;;;;;3.90;1.17;;;;;;;24.31;33.88;100791.03;1676444;79;20199;-74
2021/05/25 07:20:14;;;;;;;2.50;1.20;;;;;;;24.17;34.43;100788.66;1672257;85;21075;-73
2021/05/25 07:22:41;;;;;;;3.27;1.30;;;;;;;24.10;34.82;100782.09;1672471;85;21083;-75
2021/05/25 07:25:09;;;;;;;3.45;1.35;;;;;;;24.06;35.05;100779.66;1684000;84;21045;-73
2021/05/25 07:27:36;;;;;;;5.37;1.52;;;;;;;23.92;35.65;100779.93;1700414;84;21650;-72
2021/05/25 07:30:03;;;;;;;7.83;1.35;;;;;;;24.01;35.85;100781.86;1700393;84;21602;-72
2021/05/25 07:32:37;;;;;;;7.35;1.55;;;;;;;23.72;35.84;100781.56;1700680;81;21126;-72
2021/05/25 07:35:05;;;;;;;5.95;1.50;;;;;;;23.49;34.60;100783.44;1759980;80;21471;-77
2021/05/25 07:37:33;;;;;;;13.28;2.10;;;;;;;23.32;35.38;100785.27;1760094;81;20909;-77
2021/05/25 07:39:59;;;;;;;7.53;1.50;;;;;;;23.19;36.20;100782.23;1760238;81;20964;-76
2021/05/25 07:42:27;;;;;;;6.55;1.50;;;;;;;23.18;36.16;100785.03;1760116;81;20908;-76
2021/05/25 07:44:54;;;;;;;5.65;1.75;;;;;;;23.20;37.38;100790.65;1760228;81;21067;-76
2021/05/25 07:47:22;;;;;;;7.20;1.12;;;;;;;23.19;36.34;100780.89;1760120;81;21000;-76
2021/05/25 07:49:49;;;;;;;4.12;1.17;;;;;;;23.45;36.34;100784.66;1744369;78;21023;-73
2021/05/25 07:52:17;;;;;;;5.30;1.30;;;;;;;23.93;35.16;100795.11;1745187;82;20936;-74
2021/05/25 07:54:45;;;;;;;3.90;1.20;;;;;;;24.01;34.67;100796.66;1745171;82;21502;-74
2021/05/25 07:57:12;;;;;;;5.17;1.30;;;;;;;23.94;34.71;100797.30;1745097;82;21146;-74
2021/05/25 07:59:38;;;;;;;5.12;1.00;;;;;;;23.96;34.71;100794.84;1745114;82;20988;-72
2021/05/25 08:02:06;;;;;;;1.62;0.95;;;;;;;23.71;34.84;100791.94;1744992;80;21474;-72
2021/05/25 08:04:33;;;;;;;3.98;1.00;;;;;;;23.76;35.00;100791.59;1693338;79;74815;-85
2021/05/25 08:07:00;;;;;;;2.37;1.20;;;;;;;23.65;34.49;100798.69;1659296;86;20950;-86
2021/05/25 08:09:31;;;;;;;2.27;1.15;;;;;;;23.60;34.46;100788.80;1656698;86;21272;-83
2021/05/25 08:11:58;;;;;;;5.92;0.88;;;;;;;23.51;34.51;100792.20;1658412;82;21007;-85
2021/05/25 08:14:27;;;;;;;1.17;0.90;;;;;;;23.56;35.25;100788.68;1657890;86;20924;-85
2021/05/25 08:16:55;;;;;;;9.85;1.47;;;;;;;23.79;34.38;100785.98;1649774;86;21316;-86
2021/05/25 08:19:26;;;;;;;4.15;1.00;;;;;;;23.90;34.09;100781.89;1683765;81;21028;-72
2021/05/25 08:21:55;;;;;;;5.33;1.02;;;;;;;23.90;34.21;100784.58;1696507;84;21018;-73
2021/05/25 08:24:23;;;;;;;4.90;1.22;;;;;;;24.00;33.64;100777.47;1692205;84;21040;-72
2021/05/25 08:26:49;;;;;;;3.70;1.00;;;;;;;24.13;32.91;100777.78;1647470;85;21084;-73
2021/05/25 08:29:19;;;;;;;8.35;1.10;;;;;;;24.24;32.15;100754.86;1665495;85;21061;-73
2021/05/25 08:31:46;;;;;;;5.28;1.37;;;;;;;24.42;33.54;100750.60;1668192;85;21026;-72
2021/05/25 08:34:13;;;;;;;5.78;1.20;;;;;;;24.51;30.46;100746.30;1637374;82;21656;-85
2021/05/25 08:36:40;;;;;;;3.45;0.80;;;;;;;24.12;32.48;100747.83;1628040;86;21032;-86
2021/05/25 08:39:07;;;;;;;3.00;1.00;;;;;;;23.98;32.01;100749.00;1594812;89;20958;-82
2021/05/25 08:41:35;;;;;;;2.65;0.98;;;;;;;24.16;32.57;100751.98;1627636;86;21052;-85
2021/05/25 08:44:03;;;;;;;4.53;0.98;;;;;;;24.44;32.66;100754.02;1597382;88;21431;-87
2021/05/25 08:46:30;;;;;;;3.15;1.25;;;;;;;24.12;32.01;100758.59;1627814;86;21612;-82
2021/05/25 08:48:57;;;;;;;3.30;1.00;;;;;;;23.79;33.36;100751.02;1635774;84;21055;-76
2021/05/25 08:51:25;;;;;;;4.37;1.15;;;;;;;23.87;32.83;100751.22;1701447;82;21049;-74
2021/05/25 08:53:53;;;;;;;5.92;1.35;;;;;;;23.87;33.46;100749.88;1701316;82;21007;-76
2021/05/25 08:56:20;;;;;;;1.40;0.93;;;;;;;24.20;32.87;100758.79;1701300;82;21028;-75
2021/05/25 08:58:47;;;;;;;6.10;1.42;;;;;;;24.63;32.46;100753.81;1704121;82;21611;-73
2021/05/25 09:01:14;;;;;;;2.47;0.80;;;;;;;24.96;31.43;100744.66;1701827;82;20960;-72
2021/05/25 09:04:00;;;;;;;1.05;0.60;;;;;;;25.00;29.99;100735.28;1699366;78;75575;-84
2021/05/25 09:06:39;;;;;;;2.08;0.90;;;;;;;24.72;29.39;100738.20;1721387;82;21045;-81
2021/05/25 09:09:11;;;;;;;6.08;1.00;;;;;;;24.42;30.07;100745.22;1716274;82;20972;-82
2021/05/25 09:12:02;;;;;;;1.65;0.78;;;;;;;24.33;30.98;100740.62;1706791;82;21076;-80
2021/05/25 09:14:29;;;;;;;2.45;0.88;;;;;;;24.60;30.08;100721.28;1704508;83;26005;-81
2021/05/25 09:17:22;;;;;;;2.45;1.10;;;;;;;24.89;26.31;100721.44;1702142;83;20944;-82
2021/05/25 09:19:55;;;;;;;4.90;1.25;;;;;;;24.55;29.33;100728.03;1701600;79;21019;-72
2021/05/25 09:22:40;;;;;;;1.77;0.72;;;;;;;24.14;31.39;100732.42;1688527;82;21947;-69
2021/05/25 09:25:22;;;;;;;6.33;1.67;;;;;;;24.02;28.43;100725.74;1677877;85;21158;-74
2021/05/25 09:28:00;;;;;;;6.87;1.20;;;;;;;23.89;30.57;100741.20;1681254;85;21048;-73
2021/05/25 09:30:29;;;;;;;7.28;1.47;;;;;;;24.10;31.07;100747.11;1679501;84;21028;-73
2021/05/25 09:33:16;;;;;;;4.17;1.10;;;;;;;24.54;31.01;100737.11;1658899;86;21036;-72
2021/05/25 09:35:46;;;;;;;3.80;0.90;;;;;;;24.79;31.18;100727.75;1704363;83;21036;-77
2021/05/25 09:38:17;;;;;;;4.70;1.20;;;;;;;24.95;30.76;100724.06;1664900;84;21683;-77
2021/05/25 09:40:48;;;;;;;1.70;0.72;;;;;;;24.99;31.62;100723.31;1697357;83;21530;-79
2021/05/25 09:43:29;;;;;;;2.87;1.10;;;;;;;24.76;30.75;100731.57;1708311;83;21057;-81
2021/05/25 09:46:10;;;;;;;1.37;0.80;;;;;;;24.48;30.54;100727.73;1698156;83;21096;-86
2021/05/25 09:48:50;;;;;;;2.02;0.80;;;;;;;24.47;30.15;100733.59;1699285;80;74594;-85
2021/05/25 09:51:25;;;;;;;1.92;1.25;;;;;;;24.31;31.43;100725.09;1680262;84;26841;-84
2021/05/25 09:53:53;;;;;;;7.00;1.05;;;;;;;24.47;31.57;100720.62;1701238;82;20970;-82
2021/05/25 09:56:23;;;;;;;2.35;0.88;;;;;;;24.66;32.00;100715.84;1702182;83;20916;-83
2021/05/25 09:58:50;;;;;;;5.12;1.20;;;;;;;24.58;32.11;100710.28;1697647;84;20960;-84
2021/05/25 10:01:17;;;;;;;1.65;0.80;;;;;;;24.73;32.06;100706.23;1697917;84;20932;-83
2021/05/25 10:03:52;;;;;;;3.40;1.42;;;;;;;25.07;31.86;100703.27;1703463;81;75390;-75
2021/05/25 10:06:19;;;;;;;5.33;1.27;;;;;;;25.44;32.29;100703.53;1703790;82;21904;-77
2021/05/25 10:08:49;;;;;;;2.65;0.98;;;;;;;25.57;32.29;100704.63;1702109;83;20948;-76
2021/05/25 10:11:17;;;;;;;4.50;1.20;;;;;;;25.10;32.35;100696.27;1709610;82;20929;-76
2021/05/25 10:13:44;;;;;;;6.35;1.15;;;;;;;24.71;32.94;100686.69;1698092;83;21100;-72
2021/05/25 10:16:15;;;;;;;2.75;0.93;;;;;;;24.90;33.64;100699.38;1701567;82;21684;-76
2021/05/25 10:21:12;;;;;;;4.55;1.25;;;;;;;25.41;32.61;100690.34;1750532;81;21448;-84
2021/05/25 10:23:42;;;;;;;6.67;1.10;;;;;;;25.51;32.80;100688.52;1744459;80;21477;-85
2021/05/25 10:26:16;;;;;;;3.62;0.98;;;;;;;25.78;33.28;100692.86;1746672;81;20873;-82
2021/05/25 10:28:50;;;;;;;4.65;1.15;;;;;;;25.48;32.33;100690.12;1742998;81;20903;-86
2021/05/25 10:31:36;;;;;;;6.25;2.20;;;;;;;25.33;32.77;100680.26;1748476;81;20888;-85
2021/05/25 10:34:20;;;;;;;13.60;1.72;;;;;;;25.45;32.90;100672.05;1724531;79;74663;-79
2021/05/25 10:36:55;;;;;;;3.20;1.00;;;;;;;25.49;32.70;100680.19;1675566;84;21120;-75
2021/05/25 10:39:43;;;;;;;3.02;1.20;;;;;;;25.45;32.20;100668.00;1723739;81;21043;-80
2021/05/25 10:42:27;;;;;;;1.92;1.00;;;;;;;25.41;32.65;100674.66;1732346;81;20961;-86
2021/05/25 10:45:13;;;;;;;8.18;1.30;;;;;;;25.25;33.10;100659.88;1730507;81;20895;-87
2021/05/25 10:48:00;;;;;;;4.20;0.90;;;;;;;25.07;33.36;100650.72;1712233;81;20962;-79
2021/05/25 10:50:31;;;;;;;4.58;2.30;;;;;;;25.10;32.61;100642.38;1691023;81;21055;-74
2021/05/25 10:53:04;;;;;;;3.80;1.80;;;;;;;24.76;33.15;100654.81;1647051;85;21046;-75
2021/05/25 10:55:34;;;;;;;2.83;1.50;;;;;;;24.55;33.90;100652.64;1644928;85;21088;-73
2021/05/25 10:58:28;;;;;;;2.92;1.32;;;;;;;24.60;33.69;100642.34;1677882;84;21561;-74
2021/05/25 11:00:52;;;;;;;3.20;1.37;;;;;;;24.52;34.03;100648.38;1672318;84;20987;-74
2021/05/25 11:03:21;;;;;;;5.78;0.90;;;;;;;24.46;34.33;100641.67;1648007;85;21605;-76
2021/05/25 11:05:51;;;;;;;3.22;0.90;;;;;;;24.54;33.25;100636.14;1643737;83;21046;-81
2021/05/25 11:08:25;;;;;;;2.90;0.88;;;;;;;24.46;31.96;100641.67;1680912;83;21232;-82
2021/05/25 11:11:15;;;;;;;2.02;0.95;;;;;;;24.40;32.42;100636.81;1655906;85;21566;-81
2021/05/25 11:13:48;;;;;;;3.50;0.90;;;;;;;24.16;33.16;100660.49;1681488;83;20932;-80
2021/05/25 11:16:36;;;;;;;3.55;1.00;;;;;;;24.07;33.38;100648.17;1688856;83;21067;-81
2021/05/25 11:19:12;;;;;;;5.72;0.90;;;;;;;23.94;33.99;100656.92;1691736;81;21299;-73
2021/05/25 11:24:41;;;;;;;3.47;1.00;;;;;;;24.36;33.38;100635.38;1782656;79;21569;-74
2021/05/25 11:27:16;;;;;;;2.62;1.10;;;;;;;24.32;32.95;100637.12;1765784;79;21020;-78
2021/05/25 11:29:52;;;;;;;2.95;1.10;;;;;;;24.45;33.80;100633.72;1775240;79;20928;-77
2021/05/25 11:32:21;;;;;;;4.28;1.00;;;;;;;24.72;33.00;100634.52;1784315;79;21495;-77
2021/05/25 11:35:00;;;;;;;4.30;1.50;;;;;;;24.70;32.23;100629.76;1768593;79;21802;-76
2021/05/25 11:37:33;;;;;;;2.22;1.05;;;;;;;24.62;33.43;100633.14;1748851;80;21058;-78
2021/05/25 11:40:00;;;;;;;7.42;1.10;;;;;;;24.38;33.98;100629.36;1711858;82;21527;-75
2021/05/25 11:42:31;;;;;;;2.60;1.00;;;;;;;24.17;34.51;100628.55;1698483;83;21520;-78
2021/05/25 11:44:59;;;;;;;5.97;1.17;;;;;;;24.17;33.81;100617.28;1702362;83;20947;-77
2021/05/25 11:47:26;;;;;;;6.08;1.42;;;;;;;24.24;33.41;100607.69;1698143;83;21727;-81